Airfield :
LOGIN :

Register | Disclaimer

   EN    FR    IT 

 










Legend :    VFR   Marginal VFR   IFR   Intensive IFR   Very Intensive IFR
Visi :
Ceiling :
>= 8 km
>= 3000ft
5 to 8 km
1000 to 3000 ft
1500m to 5 km
500 to 1000 ft
800 to 1500m
200 to 500 ft
< 800m
< 200 ft
Symbols :   Thunderstorms  Fog  Heavy snow  Heavy precipitations  Wind > 20 kt
SIGMETs :     Misc.  Thunderstorms  Icing  Turbulence  Mountain Waves  Volcanic Ashes







- Airport Elevation : 228 ft
- IATA code : OPO


LPPR - Porto Fr. Sa Carneiro

CURRENT METAR :
  • 281130Z 10011KT 060V130 CAVOK 18/M04 Q1013

EXPIRED METARs :
  • 281100Z 07013G23KT 350V110 CAVOK 17/M02 Q1013
  • 281030Z 08013KT 050V130 CAVOK 17/M03 Q1013
  • 281000Z 10012KT 060V130 CAVOK 15/M03 Q1013
  • 280930Z 09013KT CAVOK 15/M02 Q1014
  • 280900Z 09013KT 050V110 CAVOK 14/M04 Q1014

TAF TAF LPPR
Valid from the 28 at 12:00 until the 29 at 12:00 UTC


281100Z 2812/2912 09012KT CAVOK
BECMG 2813/2815 33013KT
BECMG 2818/2821 VRB03KT
BECMG 2904/2906 16005KT
BECMG 2908/2911 24010KT 9999 SCT020
No reported NOTAMs for that airfield.



MET'MAP, your aeronautical weather chart ! - Copyright ORBIFLY December 2007 - Disclaimer

ORBIFLY MET'MAP TEAM :

Programming & Development : Alexandra Zaïnal
Concept & Development : Baudouin d'Aumeries
Co-Development & Prog : Marc-Olivier Méhu
Technical & hardware support : Manuel Goepfert

Contact : metmap@orbifly.com




SOURCES & CREDITS :

   NOAA